createdAt,value
2019-01-27T00:00:50.525Z,98766.00
2019-01-27T00:01:54.028Z,98769.50
2019-01-27T00:02:57.668Z,98763.41
2019-01-27T00:03:59.814Z,98760.41
2019-01-27T00:05:01.847Z,98764.16
2019-01-27T00:06:03.938Z,98763.41
2019-01-27T00:07:08.812Z,98762.86
2019-01-27T00:08:13.692Z,98760.66
2019-01-27T00:09:14.669Z,98751.58
2019-01-27T00:10:16.721Z,98756.77
2019-01-27T00:11:18.779Z,98755.47
2019-01-27T00:12:22.327Z,98748.98
2019-01-27T00:13:24.355Z,98750.17
2019-01-27T00:14:26.386Z,98752.37
2019-01-27T00:15:28.425Z,98744.97
2019-01-27T00:16:31.285Z,98745.88
2019-01-27T00:17:33.425Z,98743.67
2019-01-27T00:18:35.573Z,98742.38
2019-01-27T00:19:37.541Z,98734.98
2019-01-27T00:20:39.579Z,98739.78
2019-01-27T00:21:41.693Z,98731.98
2019-01-27T00:22:43.733Z,98735.48
2019-01-27T00:23:45.733Z,98725.49
2019-01-27T00:24:49.087Z,98724.20
2019-01-27T00:25:51.131Z,98721.50
2019-01-27T00:26:53.425Z,98725.49
2019-01-27T00:27:55.488Z,98724.59
2019-01-27T00:28:57.527Z,98726.50
2019-01-27T00:29:59.523Z,98719.00
2019-01-27T00:31:01.552Z,98709.01
2019-01-27T00:32:03.621Z,98717.70
2019-01-27T00:33:05.876Z,98716.41
2019-01-27T00:34:07.839Z,98716.41
2019-01-27T00:35:09.831Z,98715.50
2019-01-27T00:36:11.809Z,98709.81
2019-01-27T00:37:14.069Z,98705.41
2019-01-27T00:38:16.135Z,98705.01
2019-01-27T00:39:18.257Z,98707.11
2019-01-27T00:40:20.291Z,98708.00
2019-01-27T00:41:22.332Z,98700.61
2019-01-27T00:42:24.375Z,98702.81
2019-01-27T00:43:26.364Z,98694.62
2019-01-27T00:44:28.413Z,98699.42
2019-01-27T00:45:30.445Z,98693.32
2019-01-27T00:46:32.429Z,98700.21
2019-01-27T00:47:34.517Z,98694.62
2019-01-27T00:48:38.169Z,98693.32
2019-01-27T00:49:40.275Z,98696.31
2019-01-27T00:50:42.299Z,98692.02
2019-01-27T00:51:44.354Z,98687.23
2019-01-27T00:52:46.633Z,98682.94
2019-01-27T00:53:48.681Z,98679.94
2019-01-27T00:54:50.721Z,98683.44
2019-01-27T00:55:52.701Z,98681.63
2019-01-27T00:56:57.021Z,98677.34
2019-01-27T00:57:58.474Z,98678.23
2019-01-27T00:59:03.231Z,98674.73
2019-01-27T01:00:08.485Z,98670.45
2019-01-27T01:01:13.214Z,98670.05
2019-01-27T01:02:15.235Z,98663.55
2019-01-27T01:03:17.281Z,98657.46
2019-01-27T01:04:19.265Z,98661.36
2019-01-27T01:05:21.317Z,98654.86
2019-01-27T01:06:23.756Z,98656.16
2019-01-27T01:07:29.019Z,98656.16
2019-01-27T01:08:31.085Z,98652.77
2019-01-27T01:09:33.207Z,98648.47
2019-01-27T01:10:35.153Z,98648.88
2019-01-27T01:11:37.193Z,98640.17
2019-01-27T01:12:39.227Z,98643.67
2019-01-27T01:13:41.235Z,98648.58
2019-01-27T01:14:43.287Z,98639.78
2019-01-27T01:15:48.194Z,98636.78
2019-01-27T01:16:50.239Z,98641.58
2019-01-27T01:17:52.283Z,98639.88
2019-01-27T01:18:57.375Z,98635.59
2019-01-27T01:19:59.351Z,98638.72
2019-01-27T01:21:01.323Z,98628.99
2019-01-27T01:22:03.291Z,98638.19
2019-01-27T01:23:05.502Z,98629.09
2019-01-27T01:24:07.572Z,98630.53
2019-01-27T01:25:09.725Z,98619.64
2019-01-27T01:26:11.695Z,98627.53
2019-01-27T01:27:13.741Z,98623.14
2019-01-27T01:28:15.777Z,98627.53
2019-01-27T01:29:17.778Z,98623.64
2019-01-27T01:30:19.815Z,98620.94
2019-01-27T01:31:21.785Z,98618.34
2019-01-27T01:32:23.823Z,98617.54
2019-01-27T01:33:25.763Z,98616.64
2019-01-27T01:34:27.751Z,98612.75
2019-01-27T01:35:31.595Z,98607.55
2019-01-27T01:36:33.634Z,98609.75
2019-01-27T01:37:35.674Z,98604.95
2019-01-27T01:38:37.642Z,98604.55
2019-01-27T01:39:39.719Z,98604.16
2019-01-27T01:40:41.752Z,98603.66
2019-01-27T01:41:43.969Z,98601.56
2019-01-27T01:42:46.007Z,98606.35
2019-01-27T01:43:49.866Z,98603.25
2019-01-27T01:44:52.053Z,98599.36
2019-01-27T01:45:54.180Z,98603.75
2019-01-27T01:46:56.163Z,98603.75
2019-01-27T01:47:58.202Z,98593.27
2019-01-27T01:49:00.411Z,98600.26
2019-01-27T01:50:02.723Z,98595.46
2019-01-27T01:51:04.753Z,98594.56
2019-01-27T01:52:06.723Z,98590.77
2019-01-27T01:53:10.739Z,98587.27
2019-01-27T01:54:12.907Z,98590.77
2019-01-27T01:55:14.910Z,98587.27
2019-01-27T01:56:16.936Z,98587.17
2019-01-27T01:57:22.182Z,98578.58
2019-01-27T01:58:24.364Z,98572.59
2019-01-27T01:59:26.419Z,98574.69
2019-01-27T02:00:28.576Z,98568.19
2019-01-27T02:01:30.610Z,98568.69
2019-01-27T02:02:33.930Z,98565.20
2019-01-27T02:03:35.949Z,98558.20
2019-01-27T02:04:37.920Z,98559.09
2019-01-27T02:05:40.005Z,98562.59
2019-01-27T02:06:42.046Z,98557.00
2019-01-27T02:07:44.067Z,98560.89
2019-01-27T02:08:46.024Z,98557.80
2019-01-27T02:09:50.842Z,98553.10
2019-01-27T02:10:52.896Z,98546.52
2019-01-27T02:11:54.847Z,98546.52
2019-01-27T02:12:57.210Z,98542.72
2019-01-27T02:13:59.263Z,98538.72
2019-01-27T02:15:01.311Z,98540.52
2019-01-27T02:16:03.387Z,98534.42
2019-01-27T02:17:05.486Z,98535.32
2019-01-27T02:18:09.648Z,98530.92
2019-01-27T02:19:11.142Z,98527.03
2019-01-27T02:20:13.129Z,98524.43
2019-01-27T02:21:15.202Z,98524.03
2019-01-27T02:22:20.530Z,98523.90
2019-01-27T02:23:22.570Z,98521.30
2019-01-27T02:24:24.589Z,98517.04
2019-01-27T02:25:26.544Z,98516.23
2019-01-27T02:26:28.632Z,98515.34
2019-01-27T02:27:30.664Z,98513.64
2019-01-27T02:28:32.624Z,98507.95
2019-01-27T02:29:34.665Z,98512.34
2019-01-27T02:30:36.626Z,98503.66
2019-01-27T02:31:38.675Z,98502.75
2019-01-27T02:32:40.716Z,98503.66
2019-01-27T02:33:42.765Z,98497.56
2019-01-27T02:34:44.899Z,98498.86
2019-01-27T02:35:47.066Z,98499.36
2019-01-27T02:36:49.121Z,98489.77
2019-01-27T02:37:51.092Z,98489.77
2019-01-27T02:38:53.241Z,98491.43
2019-01-27T02:39:55.223Z,98487.17
2019-01-27T02:40:57.193Z,98479.38
2019-01-27T02:41:59.178Z,98476.78
2019-01-27T02:43:01.134Z,98468.45
2019-01-27T02:44:03.186Z,98471.58
2019-01-27T02:45:08.305Z,98471.19
2019-01-27T02:46:11.470Z,98468.05
2019-01-27T02:47:13.556Z,98470.28
2019-01-27T02:48:15.577Z,98468.05
2019-01-27T02:49:17.540Z,98463.39
2019-01-27T02:50:24.098Z,98461.96
2019-01-27T02:51:26.155Z,98458.06
2019-01-27T02:52:28.208Z,98456.00
2019-01-27T02:53:30.458Z,98455.47
2019-01-27T02:54:33.788Z,98452.11
2019-01-27T02:55:35.752Z,98447.67
2019-01-27T02:56:37.838Z,98442.08
2019-01-27T02:57:43.005Z,98444.31
2019-01-27T02:58:44.963Z,98443.02
2019-01-27T02:59:46.939Z,98437.28
2019-01-27T03:00:48.997Z,98441.18
2019-01-27T03:01:53.769Z,98434.19
2019-01-27T03:02:55.794Z,98433.39
2019-01-27T03:03:59.361Z,98429.63
2019-01-27T03:05:03.061Z,98430.03
2019-01-27T03:06:33.147Z,98430.39
2019-01-27T03:07:40.107Z,98423.53
2019-01-27T03:09:00.199Z,98427.80
2019-01-27T03:10:02.236Z,98419.11
2019-01-27T03:11:04.181Z,98421.30
2019-01-27T03:12:06.234Z,98416.51
2019-01-27T03:13:08.284Z,98412.74
2019-01-27T03:14:10.458Z,98410.55
2019-01-27T03:15:12.548Z,98411.84
2019-01-27T03:16:15.262Z,98404.05
2019-01-27T03:17:21.106Z,98399.22
2019-01-27T03:18:23.158Z,98406.12
2019-01-27T03:19:25.202Z,98404.05
2019-01-27T03:20:29.665Z,98398.45
2019-01-27T03:21:33.721Z,98393.66
2019-01-27T03:22:35.426Z,98393.66
2019-01-27T03:23:37.466Z,98399.22
2019-01-27T03:24:39.673Z,98392.37
2019-01-27T03:25:41.705Z,98389.37
2019-01-27T03:26:43.686Z,98385.47
2019-01-27T03:27:49.113Z,98385.87
2019-01-27T03:28:52.129Z,98379.75
2019-01-27T03:29:54.202Z,98380.28
2019-01-27T03:30:56.252Z,98380.68
2019-01-27T03:32:00.556Z,98380.68
2019-01-27T03:33:03.864Z,98381.17
2019-01-27T03:34:05.819Z,98373.38
2019-01-27T03:35:07.821Z,98372.98
2019-01-27T03:36:09.781Z,98366.48
2019-01-27T03:37:11.747Z,98364.70
2019-01-27T03:38:13.785Z,98364.29
2019-01-27T03:39:15.814Z,98362.09
2019-01-27T03:40:20.549Z,98361.20
2019-01-27T03:41:22.772Z,98362.50
2019-01-27T03:42:24.747Z,98364.70
2019-01-27T03:43:26.783Z,98363.39
2019-01-27T03:44:30.458Z,98363.89
2019-01-27T03:45:32.561Z,98359.09
2019-01-27T03:46:34.605Z,98358.20
2019-01-27T03:47:36.568Z,98359.99
2019-01-27T03:48:38.605Z,98353.50
2019-01-27T03:49:40.564Z,98353.50
2019-01-27T03:50:45.623Z,98350.01
2019-01-27T03:51:47.662Z,98344.81
2019-01-27T03:52:49.614Z,98353.09
2019-01-27T03:53:51.784Z,98350.50
2019-01-27T03:54:53.807Z,98352.20
2019-01-27T03:55:55.813Z,98347.01
2019-01-27T03:56:57.853Z,98347.91
2019-01-27T03:58:02.949Z,98348.30
2019-01-27T03:59:05.199Z,98337.91
2019-01-27T04:00:10.909Z,98340.11
2019-01-27T04:01:12.919Z,98340.11
2019-01-27T04:02:14.948Z,98335.32
2019-01-27T04:03:18.200Z,98331.42
2019-01-27T04:04:20.215Z,98337.52
2019-01-27T04:05:24.355Z,98334.92
2019-01-27T04:06:26.615Z,98331.92
2019-01-27T04:07:29.785Z,98327.13
2019-01-27T04:08:34.322Z,98324.13
2019-01-27T04:09:36.273Z,98325.83
2019-01-27T04:10:38.443Z,98318.44
2019-01-27T04:11:40.434Z,98322.33
2019-01-27T04:12:42.727Z,98325.83
2019-01-27T04:13:44.739Z,98324.53
2019-01-27T04:14:48.409Z,98319.34
2019-01-27T04:15:51.554Z,98318.13
2019-01-27T04:16:54.025Z,98318.53
2019-01-27T04:17:56.061Z,98316.73
2019-01-27T04:19:01.121Z,98311.14
2019-01-27T04:20:03.215Z,98314.14
2019-01-27T04:21:05.424Z,98313.73
2019-01-27T04:22:12.710Z,98309.84
2019-01-27T04:23:17.607Z,98308.64
2019-01-27T04:24:19.812Z,98304.25
2019-01-27T04:25:21.786Z,98299.95
2019-01-27T04:26:23.866Z,98300.75
2019-01-27T04:27:27.713Z,98302.95
2019-01-27T04:28:29.743Z,98291.16
2019-01-27T04:29:34.513Z,98288.66
2019-01-27T04:30:37.765Z,98296.45
2019-01-27T04:31:41.403Z,98292.16
2019-01-27T04:32:43.709Z,98290.77
2019-01-27T04:33:47.228Z,98286.87
2019-01-27T04:34:49.264Z,98285.17
2019-01-27T04:35:51.299Z,98286.06
2019-01-27T04:36:53.274Z,98283.47
2019-01-27T04:37:55.228Z,98284.36
2019-01-27T04:38:57.541Z,98282.66
2019-01-27T04:39:59.596Z,98281.36
2019-01-27T04:41:03.666Z,98281.77
2019-01-27T04:42:05.659Z,98283.47
2019-01-27T04:43:07.910Z,98283.16
2019-01-27T04:44:09.954Z,98281.36
2019-01-27T04:45:11.983Z,98280.06
2019-01-27T04:46:14.035Z,98267.88
2019-01-27T04:47:16.115Z,98277.06
2019-01-27T04:48:20.939Z,98273.48
2019-01-27T04:49:27.331Z,98269.67
2019-01-27T04:50:29.430Z,98272.77
2019-01-27T04:51:32.540Z,98275.77
2019-01-27T04:52:34.539Z,98269.27
2019-01-27T04:53:36.626Z,98266.67
2019-01-27T04:54:38.644Z,98266.27
2019-01-27T04:55:42.174Z,98267.58
2019-01-27T04:56:44.394Z,98272.27
2019-01-27T04:57:46.633Z,98262.78
2019-01-27T04:58:50.856Z,98262.38
2019-01-27T04:59:55.242Z,98259.69
2019-01-27T05:00:57.266Z,98255.39
2019-01-27T05:02:02.066Z,98253.20
2019-01-27T05:03:18.610Z,98259.29
2019-01-27T05:04:39.023Z,98250.59
2019-01-27T05:05:41.338Z,98251.50
2019-01-27T05:06:45.101Z,98248.50
2019-01-27T05:07:47.129Z,98242.90
2019-01-27T05:08:49.126Z,98233.72
2019-01-27T05:09:51.109Z,98239.41
2019-01-27T05:10:53.138Z,98240.30
2019-01-27T05:11:55.322Z,98240.70
2019-01-27T05:12:57.382Z,98233.31
2019-01-27T05:13:59.415Z,98238.11
2019-01-27T05:15:01.381Z,98239.00
2019-01-27T05:16:05.302Z,98238.51
2019-01-27T05:17:07.380Z,98242.00
2019-01-27T05:18:09.364Z,98239.81
2019-01-27T05:19:11.412Z,98236.00
2019-01-27T05:20:13.368Z,98234.70
2019-01-27T05:21:15.318Z,98232.02
2019-01-27T05:22:17.290Z,98230.31
2019-01-27T05:23:20.874Z,98226.81
2019-01-27T05:24:22.854Z,98222.12
2019-01-27T05:25:26.958Z,98221.72
2019-01-27T05:26:28.990Z,98220.81
2019-01-27T05:27:31.140Z,98223.02
2019-01-27T05:28:33.106Z,98218.63
2019-01-27T05:29:35.157Z,98212.13
2019-01-27T05:30:40.673Z,98219.52
2019-01-27T05:31:42.985Z,98208.23
2019-01-27T05:32:45.047Z,98205.23
2019-01-27T05:33:47.083Z,98205.73
2019-01-27T05:34:49.164Z,98206.53
2019-01-27T05:35:51.198Z,98205.23
2019-01-27T05:36:53.396Z,98200.53
2019-01-27T05:37:55.423Z,98202.23
2019-01-27T05:38:57.474Z,98198.83
2019-01-27T05:40:02.700Z,98199.64
2019-01-27T05:41:09.426Z,98195.83
2019-01-27T05:42:11.462Z,98193.64
2019-01-27T05:43:14.649Z,98190.14
2019-01-27T05:44:16.600Z,98194.53
2019-01-27T05:45:18.578Z,98186.74
2019-01-27T05:46:21.558Z,98183.73
2019-01-27T05:47:24.884Z,98182.94
2019-01-27T05:48:26.972Z,98179.04
2019-01-27T05:49:31.108Z,98175.95
2019-01-27T05:50:32.836Z,98176.53
2019-01-27T05:51:34.873Z,98177.03
2019-01-27T05:52:37.130Z,98176.12
2019-01-27T05:53:44.011Z,98185.31
2019-01-27T05:54:46.036Z,98173.63
2019-01-27T05:55:48.106Z,98173.25
2019-01-27T05:56:56.494Z,98174.55
2019-01-27T05:57:53.777Z,98168.55
2019-01-27T05:58:55.807Z,98165.55
2019-01-27T05:59:59.652Z,98168.64
2019-01-27T06:01:01.732Z,98170.84
2019-01-27T06:02:08.547Z,98168.73
2019-01-27T06:03:10.582Z,98167.84
2019-01-27T06:04:12.625Z,98163.53
2019-01-27T06:05:16.554Z,98165.73
2019-01-27T06:06:21.612Z,98163.22
2019-01-27T06:07:23.617Z,98162.33
2019-01-27T06:08:25.648Z,98165.41
2019-01-27T06:09:27.682Z,98159.33
2019-01-27T06:10:29.933Z,98161.12
2019-01-27T06:11:33.635Z,98165.91
2019-01-27T06:12:35.760Z,98154.63
2019-01-27T06:13:37.799Z,98155.52
2019-01-27T06:14:39.842Z,98158.20
2019-01-27T06:15:41.815Z,98151.22
2019-01-27T06:16:43.971Z,98151.63
2019-01-27T06:17:47.798Z,98147.31
2019-01-27T06:18:49.839Z,98150.81
2019-01-27T06:19:52.181Z,98145.62
2019-01-27T06:20:54.236Z,98139.13
2019-01-27T06:21:56.416Z,98138.31
2019-01-27T06:22:58.463Z,98137.02
2019-01-27T06:24:00.519Z,98130.52
2019-01-27T06:25:02.696Z,98136.21
2019-01-27T06:26:04.725Z,98138.31
2019-01-27T06:27:06.715Z,98137.11
2019-01-27T06:28:08.743Z,98134.02
2019-01-27T06:29:10.775Z,98134.02
2019-01-27T06:30:12.836Z,98134.50
2019-01-27T06:31:16.400Z,98132.80
2019-01-27T06:32:35.463Z,98127.11
2019-01-27T06:33:51.025Z,98131.91
2019-01-27T06:34:53.080Z,98125.41
2019-01-27T06:35:55.040Z,98124.11
2019-01-27T06:36:57.085Z,98122.81
2019-01-27T06:37:59.123Z,98118.92
2019-01-27T06:39:01.078Z,98118.02
2019-01-27T06:40:03.051Z,98118.42
2019-01-27T06:41:07.107Z,98117.62
2019-01-27T06:42:08.777Z,98108.44
2019-01-27T06:43:11.775Z,98106.73
2019-01-27T06:44:13.775Z,98105.84
2019-01-27T06:45:15.943Z,98110.63
2019-01-27T06:46:22.395Z,98111.52
2019-01-27T06:47:24.452Z,98108.44
2019-01-27T06:48:26.425Z,98114.94
2019-01-27T06:49:28.387Z,98109.33
2019-01-27T06:50:30.359Z,98107.14
2019-01-27T06:51:32.393Z,98104.54
2019-01-27T06:52:34.377Z,98105.84
2019-01-27T06:53:36.431Z,98102.44
2019-01-27T06:54:38.473Z,98106.24
2019-01-27T06:55:42.373Z,98099.75
2019-01-27T06:56:44.117Z,98104.14
2019-01-27T06:57:46.173Z,98101.85
2019-01-27T06:59:04.971Z,98099.26
2019-01-27T07:00:16.965Z,98101.45
2019-01-27T07:01:53.279Z,98107.14
2019-01-27T07:03:01.584Z,98098.45
2019-01-27T07:04:12.523Z,98098.86
2019-01-27T07:05:20.106Z,98101.85
2019-01-27T07:06:31.263Z,98094.87
2019-01-27T07:07:43.659Z,98096.57
2019-01-27T07:08:52.513Z,98090.08
2019-01-27T07:10:16.593Z,98090.97
2019-01-27T07:11:47.067Z,98090.97
2019-01-27T07:12:56.401Z,98093.08
2019-01-27T07:14:23.524Z,98088.28
2019-01-27T07:15:38.699Z,98086.09
2019-01-27T07:17:02.872Z,98094.78
2019-01-27T07:18:15.135Z,98086.98
2019-01-27T07:19:36.208Z,98087.39
2019-01-27T07:20:48.126Z,98083.89
2019-01-27T07:22:10.890Z,98089.59
2019-01-27T07:23:31.925Z,98087.39
2019-01-27T07:24:40.328Z,98091.69
2019-01-27T07:25:55.970Z,98083.89
2019-01-27T07:27:13.077Z,98081.70
2019-01-27T07:28:34.113Z,98084.80
2019-01-27T07:29:52.240Z,98087.80
2019-01-27T07:31:09.705Z,98083.00
2019-01-27T07:34:08.594Z,98086.90
2019-01-27T07:35:28.607Z,98082.51
2019-01-27T07:36:50.732Z,98081.61
2019-01-27T07:38:26.918Z,98085.59
2019-01-27T07:39:37.304Z,98078.20
2019-01-27T07:40:57.234Z,98077.80
2019-01-27T07:42:07.934Z,98080.89
2019-01-27T07:43:34.803Z,98079.11
2019-01-27T07:44:47.412Z,98074.72
2019-01-27T07:46:08.532Z,98075.61
2019-01-27T07:47:26.735Z,98070.41
2019-01-27T07:48:46.765Z,98078.61
2019-01-27T07:50:06.784Z,98074.80
2019-01-27T07:51:30.850Z,98075.61
2019-01-27T07:52:56.928Z,98078.20
2019-01-27T07:54:16.719Z,98077.80
2019-01-27T07:55:37.753Z,98076.02
2019-01-27T07:56:48.310Z,98074.31
2019-01-27T07:58:00.688Z,98067.41
2019-01-27T07:59:24.626Z,98072.61
2019-01-27T08:00:36.759Z,98070.91
2019-01-27T08:02:00.982Z,98067.02
2019-01-27T08:03:17.728Z,98070.91
2019-01-27T08:04:35.860Z,98069.12
2019-01-27T08:05:48.292Z,98067.91
2019-01-27T08:07:01.424Z,98066.12
2019-01-27T08:08:13.672Z,98064.41
2019-01-27T08:09:33.593Z,98068.31
2019-01-27T08:10:48.074Z,98064.41
2019-01-27T08:12:09.133Z,98057.02
2019-01-27T08:13:36.221Z,98062.31
2019-01-27T08:15:00.289Z,98061.41
2019-01-27T08:16:09.909Z,98056.62
2019-01-27T08:17:26.751Z,98054.02
2019-01-27T08:18:54.374Z,98054.52
2019-01-27T08:20:01.863Z,98051.91
2019-01-27T08:21:23.479Z,98054.92
2019-01-27T08:22:41.813Z,98048.42
2019-01-27T08:24:12.125Z,98041.92
2019-01-27T08:25:32.624Z,98046.72
2019-01-27T08:27:10.768Z,98043.72
2019-01-27T08:28:25.577Z,98048.91
2019-01-27T08:29:38.793Z,98046.31
2019-01-27T08:30:46.981Z,98045.91
2019-01-27T08:32:10.901Z,98044.20
2019-01-27T08:33:27.253Z,98039.82
2019-01-27T08:34:37.281Z,98045.91
2019-01-27T08:36:04.195Z,98040.31
2019-01-27T08:37:23.380Z,98038.12
2019-01-27T08:38:31.180Z,98041.20
2019-01-27T08:39:52.890Z,98036.91
2019-01-27T08:41:26.137Z,98035.61
2019-01-27T08:42:53.226Z,98040.80
2019-01-27T08:44:08.687Z,98035.20
2019-01-27T08:45:32.817Z,98037.88
2019-01-27T08:46:56.044Z,98040.48
2019-01-27T08:47:58.102Z,98041.78
2019-01-27T08:49:00.093Z,98035.69
2019-01-27T08:50:02.128Z,98033.91
2019-01-27T08:51:04.149Z,98044.30
2019-01-27T08:52:06.120Z,98033.50
2019-01-27T08:53:08.207Z,98040.89
2019-01-27T08:54:10.265Z,98033.01
2019-01-27T08:55:12.225Z,98037.31
2019-01-27T08:56:14.259Z,98036.91
2019-01-27T08:57:16.584Z,98034.31
2019-01-27T08:58:18.558Z,98036.91
2019-01-27T08:59:20.534Z,98037.39
2019-01-27T09:00:29.731Z,98040.89
2019-01-27T09:01:54.037Z,98032.60
2019-01-27T09:03:11.344Z,98036.09
2019-01-27T09:04:21.126Z,98031.22
2019-01-27T09:05:41.923Z,98026.52
2019-01-27T09:06:56.751Z,98031.30
2019-01-27T09:08:16.341Z,98030.41
2019-01-27T09:09:38.163Z,98030.00
2019-01-27T09:10:47.867Z,98023.11
2019-01-27T09:12:09.807Z,98030.91
2019-01-27T09:13:33.919Z,98023.52
2019-01-27T09:14:44.746Z,98027.49
2019-01-27T09:16:03.653Z,98023.91
2019-01-27T09:17:33.848Z,98018.31
2019-01-27T09:18:46.061Z,98021.80
2019-01-27T09:20:19.118Z,98020.91
2019-01-27T09:21:34.055Z,98017.42
2019-01-27T09:22:53.946Z,98015.31
2019-01-27T09:24:09.349Z,98014.41
2019-01-27T09:25:29.649Z,98017.91
2019-01-27T09:26:36.693Z,98012.72
2019-01-27T09:27:44.724Z,98013.20
2019-01-27T09:29:11.988Z,98009.71
2019-01-27T09:30:33.154Z,98011.01
2019-01-27T09:31:46.183Z,98008.81
2019-01-27T09:33:01.014Z,98008.81
2019-01-27T09:34:16.070Z,98011.41
2019-01-27T09:35:46.411Z,98004.92
2019-01-27T09:37:13.338Z,98004.92
2019-01-27T09:38:38.742Z,98012.22
2019-01-27T09:39:51.037Z,98007.84
2019-01-27T09:41:11.319Z,98009.55
2019-01-27T09:42:31.429Z,98007.84
2019-01-27T09:43:52.099Z,98004.75
2019-01-27T09:45:00.787Z,98006.94
2019-01-27T09:46:14.339Z,98005.56
2019-01-27T09:49:03.070Z,98006.86
2019-01-27T09:50:13.899Z,98007.67
2019-01-27T09:51:30.954Z,98009.37
2019-01-27T09:52:50.917Z,98008.47
2019-01-27T09:54:30.159Z,98010.67
2019-01-27T09:55:51.052Z,98006.28
2019-01-27T09:57:12.010Z,98002.79
2019-01-27T09:58:42.369Z,98004.09
2019-01-27T10:00:02.275Z,98004.49
2019-01-27T10:01:09.966Z,98010.09
2019-01-27T10:02:34.749Z,98002.30
2019-01-27T10:03:45.275Z,98003.19
2019-01-27T10:05:06.312Z,98001.00
2019-01-27T10:06:25.879Z,97995.69
2019-01-27T10:07:46.939Z,97999.21
2019-01-27T10:09:08.205Z,97989.59
2019-01-27T10:10:24.337Z,97994.50
2019-01-27T10:11:42.765Z,97994.02
2019-01-27T10:12:56.698Z,97989.19
2019-01-27T10:14:26.998Z,97987.89
2019-01-27T10:15:50.903Z,97993.49
2019-01-27T10:17:15.668Z,97987.00
2019-01-27T10:18:48.682Z,97990.12
2019-01-27T10:20:15.249Z,97984.80
2019-01-27T10:21:32.016Z,97988.70
2019-01-27T10:22:42.005Z,97976.11
2019-01-27T10:24:00.038Z,97979.61
2019-01-27T10:25:26.678Z,97980.42
2019-01-27T10:26:36.353Z,97973.92
2019-01-27T10:27:48.902Z,97977.02
2019-01-27T10:29:12.990Z,97978.31
2019-01-27T10:30:22.506Z,97976.92
2019-01-27T10:31:49.696Z,97974.33
2019-01-27T10:33:09.400Z,97972.22
2019-01-27T10:34:26.119Z,97973.12
2019-01-27T10:35:49.352Z,97970.03
2019-01-27T10:37:03.261Z,97966.13
2019-01-27T10:38:20.528Z,97968.33
2019-01-27T10:39:47.605Z,97970.92
2019-01-27T10:40:55.344Z,97964.83
2019-01-27T10:42:10.168Z,97967.43
2019-01-27T10:43:26.704Z,97966.13
2019-01-27T10:44:41.755Z,97964.83
2019-01-27T10:46:08.628Z,97963.94
2019-01-27T10:48:54.481Z,97958.34
2019-01-27T10:50:02.814Z,97959.23
2019-01-27T10:51:29.735Z,97954.84
2019-01-27T10:52:50.466Z,97957.05
2019-01-27T10:54:04.371Z,97951.03
2019-01-27T10:55:12.672Z,97950.55
2019-01-27T10:56:25.758Z,97952.34
2019-01-27T10:57:45.518Z,97943.65
2019-01-27T10:59:09.606Z,97949.73
2019-01-27T11:00:29.632Z,97951.03
2019-01-27T11:01:59.729Z,97944.55
2019-01-27T11:03:11.299Z,97944.95
2019-01-27T11:04:38.458Z,97941.05
2019-01-27T11:05:48.241Z,97945.84
2019-01-27T11:06:57.886Z,97950.14
2019-01-27T11:08:19.483Z,97943.24
2019-01-27T11:09:29.842Z,97943.73
2019-01-27T11:11:09.049Z,97941.14
2019-01-27T11:12:27.728Z,97942.06
2019-01-27T11:13:51.415Z,97939.34
2019-01-27T11:15:14.690Z,97941.05
2019-01-27T11:18:13.279Z,97935.05
2019-01-27T11:19:33.791Z,97937.23
2019-01-27T11:20:54.431Z,97926.77
2019-01-27T11:22:14.360Z,97929.85
2019-01-27T11:23:29.313Z,97923.36
2019-01-27T11:24:50.355Z,97928.67
2019-01-27T11:26:05.376Z,97927.37
2019-01-27T11:27:33.088Z,97923.07
2019-01-27T11:28:48.800Z,97926.08
2019-01-27T11:30:06.949Z,97925.27
2019-01-27T11:31:28.060Z,97918.69
2019-01-27T11:32:55.492Z,97921.77
2019-01-27T11:34:15.270Z,97916.17
2019-01-27T11:35:54.688Z,97917.88
2019-01-27T11:37:13.973Z,97916.17
2019-01-27T11:38:44.355Z,97910.08
2019-01-27T11:40:17.865Z,97912.27
2019-01-27T11:41:47.379Z,97909.77
2019-01-27T11:43:08.490Z,97906.67
2019-01-27T11:44:29.220Z,97906.27
2019-01-27T11:45:59.811Z,97908.87
2019-01-27T11:47:11.834Z,97906.67
2019-01-27T11:48:32.869Z,97903.67
2019-01-27T11:49:44.349Z,97902.78
2019-01-27T11:50:56.673Z,97901.08
2019-01-27T11:52:05.927Z,97899.78
2019-01-27T11:53:09.054Z,97897.58
2019-01-27T11:54:11.029Z,97899.78
2019-01-27T11:55:13.060Z,97901.97
2019-01-27T11:56:15.282Z,97896.77
2019-01-27T11:57:17.395Z,97903.27
2019-01-27T11:58:22.395Z,97902.86
2019-01-27T11:59:24.335Z,97895.47
2019-01-27T12:00:34.876Z,97898.56
2019-01-27T12:01:36.911Z,97896.77
2019-01-27T12:02:38.983Z,97894.17
2019-01-27T12:03:40.934Z,97892.88
2019-01-27T12:04:42.910Z,97898.97
2019-01-27T12:05:44.941Z,97889.87
2019-01-27T12:06:46.952Z,97897.27
2019-01-27T12:07:48.940Z,97893.37
2019-01-27T12:08:50.958Z,97889.47
2019-01-27T12:09:52.993Z,97888.17
2019-01-27T12:10:54.947Z,97883.78
2019-01-27T12:11:56.921Z,97887.77
2019-01-27T12:12:58.935Z,97883.46
2019-01-27T12:14:00.958Z,97884.27
2019-01-27T12:15:03.194Z,97886.88
2019-01-27T12:16:05.232Z,97886.47
2019-01-27T12:17:07.256Z,97887.77
2019-01-27T12:18:09.269Z,97882.97
2019-01-27T12:19:11.302Z,97881.67
2019-01-27T12:20:16.440Z,97879.48
2019-01-27T12:21:18.399Z,97880.78
2019-01-27T12:22:20.670Z,97880.38
2019-01-27T12:23:22.725Z,97877.78
2019-01-27T12:24:24.761Z,97875.67
2019-01-27T12:25:26.776Z,97878.67
2019-01-27T12:26:28.723Z,97874.78
2019-01-27T12:27:30.684Z,97871.28
2019-01-27T12:28:32.705Z,97876.48
2019-01-27T12:29:34.723Z,97876.08
2019-01-27T12:30:36.756Z,97874.78
2019-01-27T12:31:38.795Z,97875.59
2019-01-27T12:32:40.761Z,97878.67
2019-01-27T12:33:42.809Z,97871.69
2019-01-27T12:34:44.763Z,97871.28
2019-01-27T12:35:46.719Z,97872.98
2019-01-27T12:36:48.741Z,97872.58
2019-01-27T12:37:50.977Z,97868.20
2019-01-27T12:38:56.211Z,97869.09
2019-01-27T12:39:58.176Z,97867.30
2019-01-27T12:41:00.133Z,97871.69
2019-01-27T12:42:02.103Z,97869.09
2019-01-27T12:43:04.137Z,97869.98
2019-01-27T12:44:06.136Z,97864.30
2019-01-27T12:45:08.169Z,97869.50
2019-01-27T12:46:10.198Z,97865.20
2019-01-27T12:47:12.238Z,97870.80
2019-01-27T12:48:14.201Z,97866.90
2019-01-27T12:49:16.253Z,97871.69
2019-01-27T12:50:18.211Z,97862.11
2019-01-27T12:51:20.251Z,97860.41
2019-01-27T12:52:22.282Z,97864.30
2019-01-27T12:53:24.315Z,97864.70
2019-01-27T12:54:26.450Z,97860.00
2019-01-27T12:55:28.492Z,97860.41
2019-01-27T12:56:30.460Z,97857.00
2019-01-27T12:57:32.457Z,97858.30
2019-01-27T12:58:34.492Z,97856.19
2019-01-27T12:59:36.669Z,97859.19
2019-01-27T13:00:38.691Z,97857.08
2019-01-27T13:01:40.655Z,97853.59
2019-01-27T13:02:42.666Z,97855.78
2019-01-27T13:03:44.613Z,97853.99
2019-01-27T13:04:46.589Z,97854.80
2019-01-27T13:05:48.551Z,97854.41
2019-01-27T13:06:50.524Z,97854.80
2019-01-27T13:07:52.542Z,97854.41
2019-01-27T13:08:54.494Z,97851.80
2019-01-27T13:09:56.479Z,97844.01
2019-01-27T13:10:59.193Z,97853.10
2019-01-27T13:12:01.232Z,97850.50
2019-01-27T13:13:03.274Z,97845.80
2019-01-27T13:14:05.305Z,97843.61
2019-01-27T13:15:07.532Z,97849.69
2019-01-27T13:16:09.484Z,97847.91
2019-01-27T13:17:11.631Z,97844.91
2019-01-27T13:18:13.826Z,97849.69
2019-01-27T13:19:15.846Z,97839.30
2019-01-27T13:20:17.836Z,97840.60